createdAt,value
2023-04-02T00:02:21.812Z,94.60
2023-04-02T00:05:31.694Z,94.60
2023-04-02T00:08:41.032Z,94.60
2023-04-02T00:11:37.443Z,94.60
2023-04-02T00:14:25.072Z,94.80
2023-04-02T00:17:10.927Z,94.80
2023-04-02T00:20:07.410Z,94.80
2023-04-02T00:22:55.661Z,94.70
2023-04-02T00:25:49.620Z,94.60
2023-04-02T00:28:35.361Z,94.60
2023-04-02T00:31:21.576Z,94.60
2023-04-02T00:34:13.600Z,94.50
2023-04-02T00:36:59.583Z,94.30
2023-04-02T00:39:48.864Z,94.30
2023-04-02T00:42:35.895Z,94.30
2023-04-02T00:45:21.688Z,94.30
2023-04-02T00:48:39.841Z,94.20
2023-04-02T00:51:35.423Z,94.20
2023-04-02T00:54:26.209Z,94.20
2023-04-02T00:57:18.164Z,94.20
2023-04-02T01:00:21.961Z,94.50
2023-04-02T01:03:16.815Z,94.10
2023-04-02T01:06:11.406Z,94.10
2023-04-02T01:09:15.252Z,94.00
2023-04-02T01:12:08.347Z,94.10
2023-04-02T01:14:58.939Z,94.00
2023-04-02T01:17:59.400Z,94.10
2023-04-02T01:21:07.144Z,94.20
2023-04-02T01:24:10.792Z,94.10
2023-04-02T01:26:58.761Z,93.80
2023-04-02T01:29:51.925Z,93.80
2023-04-02T01:32:37.873Z,93.70
2023-04-02T01:35:26.070Z,93.50
2023-04-02T01:38:18.946Z,93.30
2023-04-02T01:41:45.271Z,93.30
2023-04-02T01:44:45.416Z,93.50
2023-04-02T01:47:33.332Z,93.50
2023-04-02T01:50:31.672Z,93.40
2023-04-02T01:53:24.417Z,93.50
2023-04-02T01:56:11.368Z,93.90
2023-04-02T01:58:58.674Z,93.60
2023-04-02T02:01:58.861Z,93.50
2023-04-02T02:04:44.692Z,93.30
2023-04-02T02:07:30.814Z,93.40
2023-04-02T02:10:23.433Z,93.50
2023-04-02T02:13:14.875Z,93.50
2023-04-02T02:16:02.068Z,93.50
2023-04-02T02:19:11.607Z,93.40
2023-04-02T02:22:37.705Z,93.50
2023-04-02T02:25:31.089Z,93.50
2023-04-02T02:28:33.808Z,93.40
2023-04-02T02:31:29.572Z,93.40
2023-04-02T02:34:25.878Z,93.50
2023-04-02T02:37:19.100Z,93.60
2023-04-02T02:40:11.700Z,93.60
2023-04-02T02:43:01.616Z,93.40
2023-04-02T02:45:48.887Z,93.60
2023-04-02T02:48:38.555Z,93.50
2023-04-02T02:51:32.289Z,93.40
2023-04-02T02:54:21.606Z,93.40
2023-04-02T02:57:14.332Z,93.40
2023-04-02T03:00:01.668Z,93.40
2023-04-02T03:02:50.026Z,93.30
2023-04-02T03:05:39.200Z,93.20
2023-04-02T03:09:01.748Z,93.10
2023-04-02T03:12:04.013Z,93.20
2023-04-02T03:15:02.921Z,93.00
2023-04-02T03:18:00.732Z,93.00
2023-04-02T03:20:58.333Z,93.00
2023-04-02T03:23:53.405Z,93.10
2023-04-02T03:26:43.615Z,93.00
2023-04-02T03:29:32.177Z,93.10
2023-04-02T03:32:23.408Z,93.00
2023-04-02T03:35:31.002Z,93.40
2023-04-02T03:38:22.757Z,93.10
2023-04-02T03:41:35.009Z,93.10
2023-04-02T03:44:27.737Z,93.20
2023-04-02T03:47:28.294Z,93.30
2023-04-02T03:50:40.478Z,93.10
2023-04-02T03:53:32.304Z,93.20
2023-04-02T03:56:42.558Z,93.30
2023-04-02T03:59:47.356Z,93.20
2023-04-02T04:02:52.799Z,93.00
2023-04-02T04:06:02.168Z,93.00
2023-04-02T04:08:58.012Z,93.10
2023-04-02T04:12:01.278Z,93.10
2023-04-02T04:15:17.077Z,93.10
2023-04-02T04:18:24.473Z,93.20
2023-04-02T04:21:37.154Z,93.30
2023-04-02T04:24:32.595Z,93.20
2023-04-02T04:27:34.805Z,93.30
2023-04-02T04:30:42.586Z,93.40
2023-04-02T04:33:39.905Z,93.20
2023-04-02T04:36:30.708Z,93.00
2023-04-02T04:39:35.864Z,93.00
2023-04-02T04:42:27.633Z,92.90
2023-04-02T04:45:46.713Z,92.90
2023-04-02T04:48:59.236Z,93.00
2023-04-02T04:52:01.009Z,93.10
2023-04-02T04:54:47.795Z,92.90
2023-04-02T04:57:39.886Z,93.10
2023-04-02T05:00:58.710Z,93.00
2023-04-02T05:04:28.375Z,93.00
2023-04-02T05:07:29.398Z,93.00
2023-04-02T05:10:48.175Z,92.90
2023-04-02T05:13:54.413Z,93.00
2023-04-02T05:16:53.245Z,92.80
2023-04-02T05:19:50.618Z,92.70
2023-04-02T05:22:48.689Z,92.90
2023-04-02T05:25:36.825Z,92.70
2023-04-02T05:28:52.711Z,92.80
2023-04-02T05:31:46.710Z,92.80
2023-04-02T05:34:37.376Z,92.60
2023-04-02T05:37:28.296Z,92.60
2023-04-02T05:40:36.400Z,92.70
2023-04-02T05:43:30.218Z,92.60
2023-04-02T05:46:25.781Z,92.60
2023-04-02T05:49:42.276Z,92.70
2023-04-02T05:52:34.712Z,92.40
2023-04-02T05:55:30.321Z,92.30
2023-04-02T05:58:36.159Z,92.20
2023-04-02T06:01:51.456Z,92.30
2023-04-02T06:05:06.275Z,92.00
2023-04-02T06:07:57.947Z,91.80
2023-04-02T06:11:06.491Z,91.50
2023-04-02T06:13:53.744Z,91.30
2023-04-02T06:16:45.905Z,91.00
2023-04-02T06:19:37.447Z,91.00
2023-04-02T06:22:36.842Z,90.70
2023-04-02T06:25:44.730Z,90.60
2023-04-02T06:28:53.211Z,90.40
2023-04-02T06:31:58.472Z,90.30
2023-04-02T06:34:45.433Z,90.10
2023-04-02T06:37:40.713Z,90.00
2023-04-02T06:40:39.618Z,89.90
2023-04-02T06:43:38.603Z,89.40
2023-04-02T06:46:47.213Z,89.10
2023-04-02T06:49:51.334Z,89.10
2023-04-02T06:52:47.437Z,89.10
2023-04-02T06:55:54.417Z,88.70
2023-04-02T06:58:44.380Z,88.50
2023-04-02T07:01:33.012Z,88.70
2023-04-02T07:04:21.944Z,88.80
2023-04-02T07:07:09.922Z,88.50
2023-04-02T07:09:58.894Z,88.50
2023-04-02T07:12:44.566Z,88.60
2023-04-02T07:15:30.085Z,87.60
2023-04-02T07:18:29.764Z,87.20
2023-04-02T07:21:16.057Z,87.30
2023-04-02T07:24:01.345Z,87.30
2023-04-02T07:26:50.345Z,87.40
2023-04-02T07:29:35.820Z,87.10
2023-04-02T07:32:21.188Z,87.10
2023-04-02T07:35:07.823Z,87.20
2023-04-02T07:37:53.581Z,87.30
2023-04-02T07:40:39.179Z,86.60
2023-04-02T07:43:27.298Z,87.30
2023-04-02T07:46:20.625Z,86.20
2023-04-02T07:49:05.983Z,86.50
2023-04-02T07:51:52.326Z,86.90
2023-04-02T07:54:38.233Z,87.00
2023-04-02T07:57:27.463Z,86.60
2023-04-02T08:00:13.717Z,86.80
2023-04-02T08:02:59.119Z,86.60
2023-04-02T08:05:51.344Z,87.30
2023-04-02T08:08:36.625Z,87.20
2023-04-02T08:11:22.106Z,86.50
2023-04-02T08:14:11.351Z,86.00
2023-04-02T08:16:57.381Z,86.50
2023-04-02T08:19:54.214Z,86.20
2023-04-02T08:22:40.302Z,85.20
2023-04-02T08:25:27.460Z,85.40
2023-04-02T08:28:13.771Z,84.90
2023-04-02T08:30:59.647Z,84.90
2023-04-02T08:33:45.035Z,84.90
2023-04-02T08:36:35.695Z,84.80
2023-04-02T08:39:21.517Z,84.50
2023-04-02T08:42:18.840Z,85.00
2023-04-02T08:45:42.374Z,84.80
2023-04-02T08:48:31.416Z,84.80
2023-04-02T08:51:30.939Z,85.40
2023-04-02T08:54:29.678Z,84.90
2023-04-02T08:57:43.546Z,85.20
2023-04-02T09:00:44.679Z,84.00
2023-04-02T09:03:44.517Z,84.30
2023-04-02T09:06:30.319Z,83.90
2023-04-02T09:09:16.758Z,83.10
2023-04-02T09:12:04.621Z,83.10
2023-04-02T09:14:59.056Z,82.20
2023-04-02T09:17:53.676Z,81.50
2023-04-02T09:20:40.088Z,81.10
2023-04-02T09:23:27.445Z,81.90
2023-04-02T09:26:25.330Z,81.30
2023-04-02T09:29:14.090Z,80.70
2023-04-02T09:32:13.189Z,79.80
2023-04-02T09:35:39.590Z,78.60
2023-04-02T09:38:30.721Z,77.90
2023-04-02T09:41:20.972Z,78.50
2023-04-02T09:47:32.317Z,79.20
2023-04-02T09:50:22.995Z,78.60
2023-04-02T09:53:30.945Z,79.20
2023-04-02T09:56:24.941Z,79.00
2023-04-02T09:59:13.524Z,79.20
2023-04-02T10:02:01.996Z,80.00
2023-04-02T10:04:49.593Z,79.40
2023-04-02T10:07:44.118Z,79.20
2023-04-02T10:10:41.886Z,80.10
2023-04-02T10:13:43.174Z,80.30
2023-04-02T10:16:37.510Z,79.80
2023-04-02T10:19:37.572Z,79.20
2023-04-02T10:22:23.756Z,78.90
2023-04-02T10:25:17.219Z,78.90
2023-04-02T10:28:13.102Z,78.40
2023-04-02T10:31:09.040Z,78.80
2023-04-02T10:34:06.539Z,78.00
2023-04-02T10:36:59.048Z,77.80
2023-04-02T10:39:49.848Z,77.20
2023-04-02T10:42:49.415Z,76.00
2023-04-02T10:45:46.429Z,75.30
2023-04-02T10:48:48.848Z,75.00
2023-04-02T10:51:46.200Z,74.00
2023-04-02T10:54:38.710Z,74.20
2023-04-02T10:57:33.606Z,74.00
2023-04-02T11:00:25.926Z,71.70
2023-04-02T11:03:25.004Z,71.70
2023-04-02T11:06:31.320Z,70.70
2023-04-02T11:09:26.772Z,69.40
2023-04-02T11:12:20.110Z,69.60
2023-04-02T11:15:15.155Z,70.90
2023-04-02T11:18:01.243Z,70.20
2023-04-02T11:21:04.627Z,69.50
2023-04-02T11:24:03.325Z,69.10
2023-04-02T11:26:49.506Z,67.90
2023-04-02T11:29:56.845Z,65.60
2023-04-02T11:32:47.253Z,65.90
2023-04-02T11:35:34.939Z,65.50
2023-04-02T11:38:23.401Z,59.90
2023-04-02T11:41:16.837Z,58.70
2023-04-02T11:44:02.725Z,56.10
2023-04-02T11:46:48.234Z,54.70
2023-04-02T11:49:56.485Z,52.60
2023-04-02T11:52:47.849Z,52.60
2023-04-02T11:55:35.163Z,50.50
2023-04-02T11:58:41.909Z,49.10
2023-04-02T12:01:50.504Z,46.90
2023-04-02T12:04:57.184Z,46.40
2023-04-02T12:08:05.206Z,43.40
2023-04-02T12:11:01.307Z,43.40
2023-04-02T12:13:48.317Z,41.20
2023-04-02T12:16:42.030Z,39.10
2023-04-02T12:19:30.536Z,37.70
2023-04-02T12:22:25.116Z,36.60
2023-04-02T12:25:33.247Z,36.50
2023-04-02T12:28:19.568Z,35.20
2023-04-02T12:31:17.633Z,35.30
2023-04-02T12:34:03.095Z,34.90
2023-04-02T12:37:02.658Z,34.40
2023-04-02T12:39:54.185Z,33.20
2023-04-02T12:42:40.786Z,32.90
2023-04-02T12:45:36.616Z,33.20
2023-04-02T12:48:22.780Z,32.40
2023-04-02T12:51:10.057Z,31.10
2023-04-02T12:53:57.206Z,29.30
2023-04-02T12:56:45.534Z,28.90
2023-04-02T12:59:39.798Z,28.50
2023-04-02T13:02:27.831Z,27.50
2023-04-02T13:05:13.737Z,26.80
2023-04-02T13:11:03.868Z,27.00
2023-04-02T13:13:50.627Z,27.40
2023-04-02T13:16:41.022Z,27.20
2023-04-02T13:19:36.206Z,26.50
2023-04-02T13:22:31.551Z,26.30
2023-04-02T13:25:16.863Z,25.60
2023-04-02T13:28:03.011Z,25.10
2023-04-02T13:30:49.003Z,24.80
2023-04-02T13:33:40.067Z,25.10
2023-04-02T13:36:26.317Z,24.90
2023-04-02T13:39:11.616Z,23.80
2023-04-02T13:42:02.570Z,23.60
2023-04-02T13:44:48.139Z,24.50
2023-04-02T13:47:33.603Z,23.70
2023-04-02T13:50:22.316Z,22.30
2023-04-02T13:53:13.285Z,23.00
2023-04-02T13:55:59.033Z,22.50
2023-04-02T13:58:48.988Z,22.60
2023-04-02T14:01:35.708Z,22.90
2023-04-02T14:04:27.280Z,22.60
2023-04-02T14:07:37.739Z,22.20
2023-04-02T14:10:37.145Z,22.80
2023-04-02T14:13:22.637Z,22.50
2023-04-02T14:16:32.934Z,22.10
2023-04-02T14:19:33.124Z,21.80
2023-04-02T14:22:44.897Z,21.80
2023-04-02T14:25:51.908Z,21.60
2023-04-02T14:29:01.683Z,21.80
2023-04-02T14:31:53.822Z,21.50
2023-04-02T14:35:20.774Z,21.20
2023-04-02T14:38:36.726Z,21.40
2023-04-02T14:41:49.580Z,21.00
2023-04-02T14:44:44.565Z,20.90
2023-04-02T14:47:36.637Z,20.80
2023-04-02T14:50:29.031Z,21.10
2023-04-02T14:53:29.038Z,21.00
2023-04-02T14:56:17.932Z,20.60
2023-04-02T14:59:29.085Z,20.60
2023-04-02T15:02:38.415Z,20.20
2023-04-02T15:05:42.456Z,20.20
2023-04-02T15:08:34.893Z,20.50
2023-04-02T15:11:48.066Z,20.60
2023-04-02T15:14:38.635Z,20.60
2023-04-02T15:17:25.725Z,19.90
2023-04-02T15:20:16.962Z,20.00
2023-04-02T15:23:18.638Z,20.30
2023-04-02T15:26:18.725Z,20.00
2023-04-02T15:29:25.893Z,20.00
2023-04-02T15:32:35.002Z,20.50
2023-04-02T15:35:39.436Z,20.10
2023-04-02T15:38:38.005Z,20.70
2023-04-02T15:41:27.531Z,20.40
2023-04-02T15:44:17.063Z,20.70
2023-04-02T15:47:46.464Z,20.70
2023-04-02T15:50:54.622Z,20.80
2023-04-02T15:53:55.835Z,20.30
2023-04-02T15:57:16.450Z,20.40
2023-04-02T16:00:23.092Z,20.80
2023-04-02T16:03:20.935Z,20.90
2023-04-02T16:06:17.110Z,20.80
2023-04-02T16:09:28.184Z,20.70
2023-04-02T16:12:19.502Z,20.70
2023-04-02T16:15:30.627Z,20.90
2023-04-02T16:18:44.258Z,21.20
2023-04-02T16:21:35.526Z,21.00
2023-04-02T16:24:23.485Z,21.20
2023-04-02T16:27:31.636Z,21.70
2023-04-02T16:30:49.090Z,21.60
2023-04-02T16:33:34.782Z,21.60
2023-04-02T16:36:33.655Z,21.60
2023-04-02T16:39:39.172Z,21.40
2023-04-02T16:42:51.555Z,21.80
2023-04-02T16:46:11.929Z,21.70
2023-04-02T16:49:24.663Z,22.00
2023-04-02T16:52:29.578Z,22.50
2023-04-02T16:55:34.756Z,23.00
2023-04-02T16:58:49.315Z,22.60
2023-04-02T17:01:54.760Z,23.40
2023-04-02T17:04:55.900Z,23.80
2023-04-02T17:08:05.864Z,24.30
2023-04-02T17:10:53.980Z,24.50
2023-04-02T17:13:55.187Z,24.60
2023-04-02T17:16:50.459Z,24.70
2023-04-02T17:19:35.907Z,24.80
2023-04-02T17:22:23.452Z,24.60
2023-04-02T17:25:19.126Z,24.60
2023-04-02T17:28:12.539Z,24.40
2023-04-02T17:31:00.789Z,24.50
2023-04-02T17:33:53.809Z,25.10
2023-04-02T17:36:48.952Z,25.20
2023-04-02T17:40:01.386Z,25.90
2023-04-02T17:43:01.500Z,26.80
2023-04-02T17:45:55.415Z,28.10
2023-04-02T17:48:46.313Z,29.10
2023-04-02T17:51:59.604Z,30.10
2023-04-02T17:55:07.214Z,31.80
2023-04-02T17:58:01.350Z,33.40
2023-04-02T18:01:12.193Z,35.00
2023-04-02T18:04:21.962Z,37.00
2023-04-02T18:07:16.422Z,37.60
2023-04-02T18:10:15.284Z,38.90
2023-04-02T18:13:24.133Z,41.00
2023-04-02T18:16:38.494Z,43.50
2023-04-02T18:19:46.343Z,45.40
2023-04-02T18:22:34.924Z,47.30
2023-04-02T18:25:32.528Z,48.80
2023-04-02T18:28:32.731Z,50.60
2023-04-02T18:31:50.412Z,52.10
2023-04-02T18:34:54.102Z,52.80
2023-04-02T18:37:48.151Z,54.30
2023-04-02T18:41:09.300Z,55.40
2023-04-02T18:43:55.845Z,57.00
2023-04-02T18:46:56.613Z,58.10
2023-04-02T18:49:52.036Z,59.30
2023-04-02T18:52:39.577Z,60.00
2023-04-02T18:55:29.012Z,61.10
2023-04-02T18:58:43.105Z,62.10
2023-04-02T19:01:52.212Z,62.70
2023-04-02T19:04:39.664Z,64.50
2023-04-02T19:07:30.172Z,65.20
2023-04-02T19:10:53.420Z,66.00
2023-04-02T19:13:39.045Z,66.40
2023-04-02T19:16:53.468Z,66.90
2023-04-02T19:20:25.529Z,67.90
2023-04-02T19:23:22.788Z,68.40
2023-04-02T19:26:17.573Z,68.60
2023-04-02T19:29:09.055Z,69.20
2023-04-02T19:32:11.344Z,69.50
2023-04-02T19:35:23.027Z,70.30
2023-04-02T19:38:27.066Z,70.60
2023-04-02T19:41:42.207Z,71.10
2023-04-02T19:44:27.991Z,71.50
2023-04-02T19:47:14.760Z,71.60
2023-04-02T19:50:00.434Z,72.50
2023-04-02T19:52:45.941Z,72.70
2023-04-02T19:55:31.346Z,72.80
2023-04-02T19:58:28.688Z,73.10
2023-04-02T20:01:14.771Z,73.70
2023-04-02T20:04:00.659Z,74.00
2023-04-02T20:06:46.033Z,74.20
2023-04-02T20:09:31.667Z,74.50
2023-04-02T20:12:17.515Z,74.90
2023-04-02T20:15:04.319Z,75.20
2023-04-02T20:17:49.754Z,75.50
2023-04-02T20:20:35.610Z,75.40
2023-04-02T20:23:21.509Z,75.90
2023-04-02T20:26:07.833Z,76.40
2023-04-02T20:28:53.152Z,76.60
2023-04-02T20:31:38.775Z,76.80
2023-04-02T20:34:24.788Z,77.00
2023-04-02T20:37:10.449Z,77.50
2023-04-02T20:39:57.739Z,77.60
2023-04-02T20:42:46.030Z,77.60
2023-04-02T20:45:31.505Z,77.70
2023-04-02T20:48:17.029Z,78.30
2023-04-02T20:51:07.399Z,78.50
2023-04-02T20:53:53.931Z,78.50
2023-04-02T20:56:39.852Z,78.70
2023-04-02T20:59:25.695Z,79.10
2023-04-02T21:02:12.301Z,79.10
2023-04-02T21:04:57.713Z,79.10
2023-04-02T21:07:44.070Z,79.40
2023-04-02T21:10:31.217Z,79.70
2023-04-02T21:13:16.953Z,79.60
2023-04-02T21:16:05.144Z,79.70
2023-04-02T21:18:52.739Z,80.00
2023-04-02T21:21:41.380Z,80.20
2023-04-02T21:24:26.944Z,80.20
2023-04-02T21:27:12.558Z,80.50
2023-04-02T21:29:57.784Z,80.70
2023-04-02T21:32:43.610Z,80.70
2023-04-02T21:35:28.867Z,81.20
2023-04-02T21:38:14.304Z,81.20
2023-04-02T21:41:13.399Z,81.40
2023-04-02T21:44:00.344Z,82.00
2023-04-02T21:46:46.058Z,82.10
2023-04-02T21:49:31.517Z,81.80
2023-04-02T21:52:17.158Z,82.20
2023-04-02T21:55:02.740Z,82.00
2023-04-02T21:57:48.578Z,82.50
2023-04-02T22:00:37.098Z,82.50
2023-04-02T22:03:30.920Z,82.70
2023-04-02T22:06:21.655Z,82.90
2023-04-02T22:09:13.338Z,82.70
2023-04-02T22:11:59.031Z,82.70
2023-04-02T22:14:44.947Z,82.70
2023-04-02T22:17:30.386Z,82.50
2023-04-02T22:20:21.479Z,82.50
2023-04-02T22:23:10.804Z,82.50
2023-04-02T22:25:58.157Z,82.50
2023-04-02T22:28:43.758Z,82.70
2023-04-02T22:31:31.281Z,82.60
2023-04-02T22:34:17.282Z,82.50
2023-04-02T22:37:02.557Z,82.70
2023-04-02T22:39:48.502Z,82.60
2023-04-02T22:42:34.608Z,82.80
2023-04-02T22:45:21.483Z,82.80
2023-04-02T22:48:09.945Z,82.60
2023-04-02T22:50:55.796Z,82.80
2023-04-02T22:53:42.858Z,82.90
2023-04-02T22:56:32.296Z,82.80
2023-04-02T22:59:17.864Z,83.00
2023-04-02T23:02:03.565Z,83.00
2023-04-02T23:04:49.046Z,82.90
2023-04-02T23:07:38.191Z,83.10
2023-04-02T23:10:24.133Z,82.90
2023-04-02T23:13:16.063Z,83.00
2023-04-02T23:16:02.913Z,83.00
2023-04-02T23:18:49.007Z,83.10
2023-04-02T23:21:34.450Z,82.90
2023-04-02T23:24:20.209Z,83.10
2023-04-02T23:27:05.494Z,83.00
2023-04-02T23:29:52.157Z,83.00
2023-04-02T23:32:37.735Z,82.90
2023-04-02T23:35:23.287Z,82.90
2023-04-02T23:38:08.784Z,82.70
2023-04-02T23:40:54.443Z,82.90
2023-04-02T23:43:40.541Z,82.80
2023-04-02T23:46:26.757Z,82.70
2023-04-02T23:49:15.513Z,82.60
2023-04-02T23:52:00.713Z,82.80
2023-04-02T23:54:46.271Z,83.00
2023-04-02T23:57:31.608Z,82.90
